Terminal Aerodrome Forecast
Issued by NWS

Home | Current Version | Previous Version | Graphics & Text | Print | Product List | Glossary On
Versions: 1 2 3 4 5 6 7 8 9 10 11 12 13 14 15 16 17 18
184
FTUS43 KABR 311121
TAFPIR
TAF
KPIR 311121Z 3112/0112 27014G22KT P6SM SKC
     FM311700 27021G29KT P6SM FEW250
     FM010000 28021G29KT P6SM BKN080
     FM010300 27010KT P6SM SCT150=

USA.gov is the U.S. government's official web portal to all federal, state and local government web resources and services.